createdAt,value
2023-10-20T00:00:16.501Z,6.55
2023-10-20T00:02:43.893Z,7.00
2023-10-20T00:05:10.762Z,7.13
2023-10-20T00:07:38.090Z,6.80
2023-10-20T00:10:05.247Z,7.57
2023-10-20T00:12:32.295Z,7.47
2023-10-20T00:14:58.885Z,6.82
2023-10-20T00:17:26.007Z,7.55
2023-10-20T00:19:52.701Z,7.72
2023-10-20T00:22:19.332Z,7.13
2023-10-20T00:24:46.527Z,6.93
2023-10-20T00:27:16.668Z,7.10
2023-10-20T00:29:45.684Z,6.85
2023-10-20T00:32:16.325Z,6.63
2023-10-20T00:34:42.878Z,6.85
2023-10-20T00:37:09.434Z,6.45
2023-10-20T00:39:36.284Z,6.45
2023-10-20T00:42:03.506Z,5.90
2023-10-20T00:44:30.267Z,6.10
2023-10-20T00:46:57.766Z,6.18
2023-10-20T00:49:24.632Z,5.95
2023-10-20T00:51:51.766Z,5.55
2023-10-20T00:54:18.337Z,6.47
2023-10-20T00:56:45.279Z,6.85
2023-10-20T00:59:12.251Z,5.30
2023-10-20T01:01:39.283Z,6.63
2023-10-20T01:04:07.345Z,5.75
2023-10-20T01:06:34.443Z,5.70
2023-10-20T01:09:01.094Z,6.22
2023-10-20T01:11:27.759Z,5.60
2023-10-20T01:13:54.298Z,5.30
2023-10-20T01:16:20.955Z,6.80
2023-10-20T01:18:47.579Z,5.30
2023-10-20T01:21:14.225Z,5.07
2023-10-20T01:23:41.574Z,4.70
2023-10-20T01:26:09.197Z,4.95
2023-10-20T01:28:35.755Z,4.32
2023-10-20T01:31:02.371Z,4.05
2023-10-20T01:33:28.958Z,4.53
2023-10-20T01:35:55.567Z,5.10
2023-10-20T01:38:22.145Z,5.25
2023-10-20T01:40:48.671Z,4.97
2023-10-20T01:43:15.216Z,5.97
2023-10-20T01:45:41.881Z,5.30
2023-10-20T01:48:08.538Z,6.10
2023-10-20T01:50:36.103Z,6.07
2023-10-20T01:53:03.320Z,5.55
2023-10-20T01:55:29.883Z,5.95
2023-10-20T01:57:56.489Z,5.97
2023-10-20T02:00:23.662Z,5.80
2023-10-20T02:02:50.315Z,6.60
2023-10-20T02:05:17.019Z,7.53
2023-10-20T02:07:44.086Z,6.93
2023-10-20T02:10:11.409Z,7.28
2023-10-20T02:12:38.083Z,7.50
2023-10-20T02:15:05.828Z,7.47
2023-10-20T02:17:34.578Z,6.50
2023-10-20T02:20:02.659Z,7.07
2023-10-20T02:22:29.233Z,6.80
2023-10-20T02:24:55.777Z,7.07
2023-10-20T02:27:22.318Z,8.00
2023-10-20T02:29:48.797Z,7.10
2023-10-20T02:32:15.478Z,7.22
2023-10-20T02:34:42.276Z,7.40
2023-10-20T02:37:13.113Z,7.07
2023-10-20T02:39:40.159Z,7.47
2023-10-20T02:42:07.833Z,8.35
2023-10-20T02:44:34.605Z,7.50
2023-10-20T02:47:01.390Z,7.50
2023-10-20T02:49:27.968Z,8.07
2023-10-20T02:51:54.588Z,7.18
2023-10-20T02:54:21.307Z,7.05
2023-10-20T02:56:47.845Z,7.00
2023-10-20T02:59:14.442Z,7.32
2023-10-20T03:01:40.988Z,7.45
2023-10-20T03:04:08.085Z,7.60
2023-10-20T03:06:34.728Z,7.68
2023-10-20T03:09:01.411Z,7.43
2023-10-20T03:11:28.040Z,7.40
2023-10-20T03:13:54.613Z,7.55
2023-10-20T03:16:21.182Z,7.07
2023-10-20T03:18:47.788Z,6.90
2023-10-20T03:21:14.281Z,7.10
2023-10-20T03:23:44.862Z,6.93
2023-10-20T03:26:13.017Z,7.50
2023-10-20T03:28:40.661Z,7.05
2023-10-20T03:31:08.296Z,7.45
2023-10-20T03:33:34.862Z,7.07
2023-10-20T03:36:02.831Z,7.78
2023-10-20T03:38:29.699Z,7.63
2023-10-20T03:41:07.277Z,8.00
2023-10-20T03:43:35.584Z,8.07
2023-10-20T03:46:02.483Z,7.88
2023-10-20T03:48:30.674Z,7.60
2023-10-20T03:50:57.310Z,8.52
2023-10-20T03:53:24.467Z,8.38
2023-10-20T03:56:06.119Z,8.75
2023-10-20T03:58:37.201Z,10.70
2023-10-20T04:01:04.666Z,9.25
2023-10-20T04:03:34.337Z,8.93
2023-10-20T04:06:02.209Z,10.85
2023-10-20T04:08:29.059Z,9.63
2023-10-20T04:10:59.718Z,10.00
2023-10-20T04:13:26.735Z,10.00
2023-10-20T04:15:56.295Z,10.57
2023-10-20T04:18:25.756Z,10.48
2023-10-20T04:20:58.763Z,9.70
2023-10-20T04:23:25.783Z,10.20
2023-10-20T04:25:58.348Z,10.32
2023-10-20T04:28:41.869Z,10.07
2023-10-20T04:31:27.126Z,9.32
2023-10-20T04:34:12.086Z,10.48
2023-10-20T04:36:56.950Z,11.32
2023-10-20T04:39:41.954Z,12.25
2023-10-20T04:42:20.792Z,11.43
2023-10-20T04:44:50.092Z,12.25
2023-10-20T04:47:26.259Z,12.85
2023-10-20T04:50:02.891Z,13.77
2023-10-20T04:52:48.353Z,14.55
2023-10-20T04:55:30.077Z,13.80
2023-10-20T04:58:08.783Z,14.98
2023-10-20T05:00:38.580Z,15.93
2023-10-20T05:03:05.327Z,15.60
2023-10-20T05:05:50.352Z,15.63
2023-10-20T05:08:19.225Z,14.80
2023-10-20T05:10:46.416Z,14.82
2023-10-20T05:13:13.306Z,14.63
2023-10-20T05:15:40.273Z,16.00
2023-10-20T05:18:10.670Z,15.07
2023-10-20T05:20:38.431Z,14.10
2023-10-20T05:23:06.871Z,14.02
2023-10-20T05:25:34.027Z,15.35
2023-10-20T05:28:03.212Z,14.75
2023-10-20T05:30:29.892Z,16.08
2023-10-20T05:32:56.567Z,15.80
2023-10-20T05:35:23.141Z,16.30
2023-10-20T05:37:50.092Z,15.98
2023-10-20T05:40:17.120Z,15.40
2023-10-20T05:42:43.693Z,17.02
2023-10-20T05:45:10.979Z,16.35
2023-10-20T05:47:39.482Z,17.27
2023-10-20T05:50:07.412Z,17.10
2023-10-20T05:52:36.719Z,16.85
2023-10-20T05:55:04.593Z,17.00
2023-10-20T05:57:31.664Z,17.65
2023-10-20T06:00:01.117Z,16.20
2023-10-20T06:02:29.220Z,15.68
2023-10-20T06:04:56.115Z,16.83
2023-10-20T06:07:22.866Z,17.63
2023-10-20T06:09:50.803Z,16.90
2023-10-20T06:12:18.037Z,18.30
2023-10-20T06:14:44.816Z,16.67
2023-10-20T06:17:11.796Z,16.35
2023-10-20T06:19:38.441Z,17.80
2023-10-20T06:22:06.646Z,14.90
2023-10-20T06:24:34.519Z,14.68
2023-10-20T06:27:04.191Z,14.20
2023-10-20T06:29:31.335Z,15.05
2023-10-20T06:32:12.838Z,13.60
2023-10-20T06:34:42.999Z,14.70
2023-10-20T06:37:09.838Z,11.98
2023-10-20T06:39:38.688Z,12.48
2023-10-20T06:42:10.684Z,12.30
2023-10-20T06:44:37.586Z,11.82
2023-10-20T06:47:04.122Z,10.88
2023-10-20T06:49:30.835Z,11.23
2023-10-20T06:51:57.352Z,10.85
2023-10-20T06:54:23.844Z,9.98
2023-10-20T06:56:50.394Z,10.27
2023-10-20T06:59:16.999Z,11.20
2023-10-20T07:01:45.437Z,10.73
2023-10-20T07:04:12.192Z,9.95
2023-10-20T07:06:39.029Z,10.82
2023-10-20T07:09:23.653Z,10.23
2023-10-20T07:11:50.937Z,10.60
2023-10-20T07:14:17.516Z,12.95
2023-10-20T07:16:44.177Z,12.40
2023-10-20T07:19:11.780Z,10.90
2023-10-20T07:21:38.630Z,11.60
2023-10-20T07:24:05.472Z,10.50
2023-10-20T07:26:32.263Z,11.32
2023-10-20T07:28:58.840Z,11.93
2023-10-20T07:31:27.611Z,11.80
2023-10-20T07:33:54.800Z,11.30
2023-10-20T07:36:21.423Z,10.55
2023-10-20T07:38:48.159Z,11.35
2023-10-20T07:41:17.456Z,11.43
2023-10-20T07:43:44.108Z,11.20
2023-10-20T07:46:18.125Z,11.48
2023-10-20T07:48:44.858Z,10.98
2023-10-20T07:51:12.660Z,11.52
2023-10-20T07:53:39.462Z,10.55
2023-10-20T07:56:09.139Z,10.77
2023-10-20T07:58:35.723Z,9.93
2023-10-20T08:01:02.406Z,10.10
2023-10-20T08:03:29.381Z,10.38
2023-10-20T08:05:56.886Z,10.90
2023-10-20T08:08:23.988Z,8.85
2023-10-20T08:10:51.018Z,11.18
2023-10-20T08:13:19.445Z,10.20
2023-10-20T08:15:46.238Z,11.23
2023-10-20T08:18:13.659Z,10.93
2023-10-20T08:20:40.799Z,18.50
2023-10-20T08:23:07.360Z,17.90
2023-10-20T08:25:38.129Z,17.98
2023-10-20T08:28:05.947Z,18.27
2023-10-20T08:30:32.566Z,17.02
2023-10-20T08:33:00.550Z,16.30
2023-10-20T08:35:27.447Z,14.85
2023-10-20T08:37:54.083Z,10.52
2023-10-20T08:43:03.738Z,9.20
2023-10-20T08:45:33.860Z,8.70
2023-10-20T08:48:03.143Z,9.85
2023-10-20T08:50:32.971Z,9.77
2023-10-20T08:53:02.421Z,9.23
2023-10-20T08:55:28.968Z,8.75
2023-10-20T08:57:55.650Z,8.68
2023-10-20T09:00:22.254Z,9.73
2023-10-20T09:02:49.617Z,9.85
2023-10-20T09:05:23.388Z,9.90
2023-10-20T09:07:57.301Z,10.30
2023-10-20T09:10:24.476Z,11.98
2023-10-20T09:12:51.371Z,12.82
2023-10-20T09:15:18.236Z,15.80
2023-10-20T09:17:46.106Z,20.27
2023-10-20T09:20:13.390Z,20.40
2023-10-20T09:22:40.057Z,20.42
2023-10-20T09:25:13.090Z,20.67
2023-10-20T09:27:39.712Z,19.48
2023-10-20T09:30:12.270Z,17.45
2023-10-20T09:32:39.833Z,18.30
2023-10-20T09:35:07.276Z,17.80
2023-10-20T09:37:37.338Z,14.25
2023-10-20T09:40:13.842Z,14.82
2023-10-20T09:43:07.874Z,14.27
2023-10-20T09:45:44.916Z,9.35
2023-10-20T09:48:19.941Z,11.55
2023-10-20T09:50:52.037Z,11.10
2023-10-20T09:53:19.444Z,8.77
2023-10-20T09:55:48.637Z,6.88
2023-10-20T09:58:25.880Z,5.57
2023-10-20T10:00:52.661Z,4.40
2023-10-20T10:03:29.781Z,2.58
2023-10-20T10:05:57.067Z,2.58
2023-10-20T10:08:26.051Z,2.35
2023-10-20T10:10:52.659Z,1.95
2023-10-20T10:13:33.003Z,1.90
2023-10-20T10:16:11.645Z,1.60
2023-10-20T10:18:46.285Z,0.90
2023-10-20T10:21:28.252Z,0.77
2023-10-20T10:24:14.745Z,1.00
2023-10-20T10:26:53.097Z,2.70
2023-10-20T10:29:54.953Z,40.03
2023-10-20T10:32:23.632Z,1.77
2023-10-20T10:34:55.696Z,0.73
2023-10-20T10:37:38.735Z,0.80
2023-10-20T10:40:15.407Z,0.70
2023-10-20T10:42:43.878Z,0.50
2023-10-20T10:45:22.095Z,0.50
2023-10-20T10:47:49.938Z,0.45
2023-10-20T10:50:18.240Z,0.63
2023-10-20T10:52:44.916Z,0.63
2023-10-20T10:55:11.468Z,5.57
2023-10-20T10:57:39.681Z,3.78
2023-10-20T11:00:10.466Z,1.95
2023-10-20T11:02:37.222Z,1.17
2023-10-20T11:05:05.006Z,0.80
2023-10-20T11:07:32.236Z,0.50
2023-10-20T11:09:58.759Z,0.85
2023-10-20T11:12:25.500Z,0.60
2023-10-20T11:14:57.394Z,0.40
2023-10-20T11:17:25.713Z,0.73
2023-10-20T11:19:52.415Z,0.82
2023-10-20T11:22:18.980Z,0.70
2023-10-20T11:24:53.616Z,1.27
2023-10-20T11:27:20.404Z,0.50
2023-10-20T11:29:58.554Z,0.60
2023-10-20T11:32:28.859Z,0.80
2023-10-20T11:34:55.550Z,0.40
2023-10-20T11:37:22.117Z,0.30
2023-10-20T11:39:48.762Z,0.47
2023-10-20T11:42:15.526Z,0.40
2023-10-20T11:44:42.174Z,0.70
2023-10-20T11:47:08.853Z,0.60
2023-10-20T11:49:35.350Z,0.50
2023-10-20T11:52:03.732Z,2.03
2023-10-20T11:54:30.357Z,2.22
2023-10-20T11:56:56.918Z,1.88
2023-10-20T11:59:23.496Z,2.20
2023-10-20T12:01:50.244Z,1.10
2023-10-20T12:04:17.462Z,0.30
2023-10-20T12:06:45.217Z,0.45
2023-10-20T12:09:17.872Z,0.77
2023-10-20T12:11:46.576Z,0.30
2023-10-20T12:14:15.254Z,0.50
2023-10-20T12:16:43.081Z,0.40
2023-10-20T12:19:09.778Z,0.22
2023-10-20T12:21:36.443Z,0.40
2023-10-20T12:24:03.255Z,0.30
2023-10-20T12:26:29.843Z,0.40
2023-10-20T12:28:58.129Z,0.30
2023-10-20T12:31:27.393Z,0.30
2023-10-20T12:33:54.190Z,0.20
2023-10-20T12:36:22.367Z,0.10
2023-10-20T12:38:49.262Z,0.20
2023-10-20T12:41:16.082Z,0.13
2023-10-20T12:43:43.284Z,0.15
2023-10-20T12:46:13.442Z,0.20
2023-10-20T12:48:41.324Z,0.20
2023-10-20T12:51:12.070Z,0.20
2023-10-20T12:53:38.913Z,0.20
2023-10-20T12:56:06.623Z,0.30
2023-10-20T12:58:34.096Z,0.60
2023-10-20T13:01:01.032Z,0.40
2023-10-20T13:03:28.042Z,0.30
2023-10-20T13:05:55.716Z,0.57
2023-10-20T13:08:23.431Z,0.50
2023-10-20T13:10:50.068Z,0.32
2023-10-20T13:13:18.046Z,0.60
2023-10-20T13:15:45.502Z,0.20
2023-10-20T13:18:13.743Z,0.20
2023-10-20T13:20:41.700Z,0.30
2023-10-20T13:23:08.319Z,0.70
2023-10-20T13:25:35.280Z,0.40
2023-10-20T13:28:01.941Z,0.40
2023-10-20T13:30:28.542Z,0.60
2023-10-20T13:32:55.119Z,0.63
2023-10-20T13:35:23.114Z,0.50
2023-10-20T13:37:50.856Z,0.60
2023-10-20T13:40:17.488Z,0.52
2023-10-20T13:42:45.377Z,1.02
2023-10-20T13:45:13.687Z,1.05
2023-10-20T13:47:40.585Z,1.20
2023-10-20T13:50:10.397Z,1.42
2023-10-20T13:52:39.632Z,1.08
2023-10-20T13:55:20.839Z,1.10
2023-10-20T13:57:48.780Z,1.27
2023-10-20T14:00:18.264Z,1.25
2023-10-20T14:02:45.021Z,2.08
2023-10-20T14:05:13.618Z,1.73
2023-10-20T14:07:40.117Z,2.15
2023-10-20T14:10:07.392Z,2.00
2023-10-20T14:12:33.910Z,2.30
2023-10-20T14:15:00.835Z,2.45
2023-10-20T14:17:27.511Z,1.65
2023-10-20T14:19:54.732Z,1.60
2023-10-20T14:22:21.286Z,1.50
2023-10-20T14:24:47.901Z,1.80
2023-10-20T14:27:14.366Z,1.92
2023-10-20T14:29:41.639Z,1.60
2023-10-20T14:32:08.477Z,1.75
2023-10-20T14:34:36.321Z,2.17
2023-10-20T14:37:04.508Z,2.53
2023-10-20T14:39:31.132Z,1.95
2023-10-20T14:41:57.644Z,2.20
2023-10-20T14:44:24.219Z,3.00
2023-10-20T14:46:50.742Z,2.03
2023-10-20T14:49:17.237Z,2.25
2023-10-20T14:51:43.793Z,2.35
2023-10-20T14:54:14.872Z,2.60
2023-10-20T14:56:41.653Z,2.42
2023-10-20T14:59:08.365Z,1.70
2023-10-20T15:01:35.106Z,2.25
2023-10-20T15:04:14.019Z,2.88
2023-10-20T15:06:48.323Z,2.75
2023-10-20T15:09:15.359Z,2.78
2023-10-20T15:11:41.918Z,2.70
2023-10-20T15:14:09.367Z,2.45
2023-10-20T15:16:36.015Z,1.70
2023-10-20T15:19:02.538Z,2.00
2023-10-20T15:21:29.566Z,3.38
2023-10-20T15:23:56.235Z,2.60
2023-10-20T15:26:23.080Z,2.17
2023-10-20T15:28:49.657Z,2.60
2023-10-20T15:31:16.206Z,1.85
2023-10-20T15:33:43.138Z,2.47
2023-10-20T15:36:10.923Z,2.45
2023-10-20T15:38:38.703Z,2.25
2023-10-20T15:41:05.528Z,1.80
2023-10-20T15:43:32.854Z,1.75
2023-10-20T15:46:00.515Z,1.60
2023-10-20T15:48:27.242Z,1.65
2023-10-20T15:50:53.974Z,1.50
2023-10-20T15:53:20.565Z,1.67
2023-10-20T15:55:47.506Z,1.58
2023-10-20T15:58:16.451Z,1.42
2023-10-20T16:00:47.777Z,1.60
2023-10-20T16:03:18.872Z,1.90
2023-10-20T16:05:46.921Z,1.40
2023-10-20T16:08:13.483Z,1.67
2023-10-20T16:10:39.956Z,1.65
2023-10-20T16:13:06.404Z,1.77
2023-10-20T16:15:33.626Z,1.40
2023-10-20T16:18:00.266Z,2.03
2023-10-20T16:20:27.315Z,1.92
2023-10-20T16:22:53.873Z,1.90
2023-10-20T16:25:20.415Z,1.63
2023-10-20T16:27:46.940Z,1.65
2023-10-20T16:30:13.565Z,1.77
2023-10-20T16:32:41.885Z,1.67
2023-10-20T16:35:09.363Z,1.95
2023-10-20T16:37:36.213Z,1.80
2023-10-20T16:40:03.063Z,1.90
2023-10-20T16:42:29.601Z,2.40
2023-10-20T16:44:56.634Z,2.03
2023-10-20T16:47:23.211Z,1.60
2023-10-20T16:49:52.128Z,2.22
2023-10-20T16:52:18.840Z,1.80
2023-10-20T16:54:52.042Z,1.95
2023-10-20T16:59:45.973Z,2.42
2023-10-20T17:02:12.591Z,2.42
2023-10-20T17:04:39.116Z,2.63
2023-10-20T17:07:06.001Z,2.20
2023-10-20T17:09:34.419Z,2.65
2023-10-20T17:12:01.346Z,2.42
2023-10-20T17:14:28.829Z,2.80
2023-10-20T17:16:55.996Z,2.65
2023-10-20T17:19:22.678Z,2.80
2023-10-20T17:21:49.191Z,2.65
2023-10-20T17:24:15.864Z,3.50
2023-10-20T17:26:42.400Z,3.13
2023-10-20T17:29:08.952Z,3.75
2023-10-20T17:31:35.681Z,3.70
2023-10-20T17:34:02.538Z,3.13
2023-10-20T17:36:29.113Z,3.58
2023-10-20T17:38:56.014Z,3.70
2023-10-20T17:41:22.615Z,3.70
2023-10-20T17:43:49.127Z,3.78
2023-10-20T17:46:18.126Z,3.58
2023-10-20T17:48:45.229Z,3.03
2023-10-20T17:51:12.088Z,3.00
2023-10-20T17:53:38.709Z,2.67
2023-10-20T17:56:06.148Z,2.35
2023-10-20T17:58:33.275Z,1.77
2023-10-20T18:01:10.800Z,1.90
2023-10-20T18:03:43.628Z,2.00
2023-10-20T18:06:15.847Z,1.85
2023-10-20T18:08:47.385Z,2.00
2023-10-20T18:11:18.081Z,2.00
2023-10-20T18:13:46.199Z,1.83
2023-10-20T18:16:18.108Z,1.77
2023-10-20T18:18:49.454Z,1.75
2023-10-20T18:21:19.288Z,1.60
2023-10-20T18:23:48.026Z,1.50
2023-10-20T18:26:15.104Z,1.50
2023-10-20T18:28:42.178Z,1.58
2023-10-20T18:31:14.977Z,1.55
2023-10-20T18:33:42.236Z,2.10
2023-10-20T18:36:09.428Z,1.75
2023-10-20T18:38:36.027Z,1.90
2023-10-20T18:41:04.167Z,1.90
2023-10-20T18:43:30.935Z,1.45
2023-10-20T18:46:00.951Z,1.45
2023-10-20T18:48:28.176Z,1.33
2023-10-20T18:51:07.584Z,1.20
2023-10-20T18:53:35.924Z,1.25
2023-10-20T18:56:03.024Z,1.20
2023-10-20T18:58:30.246Z,0.90
2023-10-20T19:00:57.977Z,1.20
2023-10-20T19:03:24.857Z,1.17
2023-10-20T19:05:51.913Z,0.93
2023-10-20T19:08:19.302Z,1.25
2023-10-20T19:10:46.294Z,1.73
2023-10-20T19:13:13.170Z,1.90
2023-10-20T19:15:39.789Z,2.30
2023-10-20T19:18:06.511Z,1.30
2023-10-20T19:20:33.066Z,1.17
2023-10-20T19:23:01.037Z,0.68
2023-10-20T19:25:27.680Z,0.68
2023-10-20T19:27:59.494Z,0.80
2023-10-20T19:30:25.988Z,0.98
2023-10-20T19:32:52.699Z,0.70
2023-10-20T19:35:19.305Z,0.85
2023-10-20T19:37:45.783Z,1.00
2023-10-20T19:40:15.085Z,0.70
2023-10-20T19:42:44.038Z,0.80
2023-10-20T19:45:11.651Z,0.60
2023-10-20T19:47:38.542Z,0.70
2023-10-20T19:50:05.808Z,1.00
2023-10-20T19:52:32.379Z,0.60
2023-10-20T19:55:01.855Z,0.70
2023-10-20T19:57:28.421Z,0.60
2023-10-20T19:59:55.095Z,0.80
2023-10-20T20:02:21.676Z,0.90
2023-10-20T20:04:48.361Z,0.77
2023-10-20T20:07:14.874Z,0.40
2023-10-20T20:09:41.430Z,0.40
2023-10-20T20:12:08.070Z,0.20
2023-10-20T20:14:34.692Z,0.20
2023-10-20T20:17:03.045Z,0.22
2023-10-20T20:19:29.787Z,0.10
2023-10-20T20:21:56.280Z,0.10
2023-10-20T20:24:22.790Z,0.10
2023-10-20T20:26:49.390Z,0.20
2023-10-20T20:29:15.957Z,0.40
2023-10-20T20:31:42.563Z,0.10
2023-10-20T20:34:10.617Z,0.10
2023-10-20T20:36:37.291Z,0.25
2023-10-20T20:39:05.731Z,0.30
2023-10-20T20:41:34.680Z,0.20
2023-10-20T20:44:01.174Z,0.15
2023-10-20T20:46:27.850Z,0.20
2023-10-20T20:48:54.551Z,0.25
2023-10-20T20:51:21.159Z,0.10
2023-10-20T20:53:47.986Z,0.30
2023-10-20T20:56:17.027Z,0.10
2023-10-20T20:58:43.516Z,0.10
2023-10-20T21:01:11.396Z,0.15
2023-10-20T21:03:44.142Z,0.10
2023-10-20T21:06:11.403Z,0.30
2023-10-20T21:08:38.036Z,0.22
2023-10-20T21:11:14.233Z,0.10
2023-10-20T21:13:43.137Z,0.30
2023-10-20T21:16:11.234Z,0.13
2023-10-20T21:18:38.714Z,0.10
2023-10-20T21:21:11.794Z,0.20
2023-10-20T21:23:38.472Z,0.20
2023-10-20T21:26:05.074Z,0.25
2023-10-20T21:28:31.644Z,0.20
2023-10-20T21:31:06.278Z,0.30
2023-10-20T21:33:33.899Z,0.20
2023-10-20T21:36:01.227Z,0.22
2023-10-20T21:38:27.752Z,0.32
2023-10-20T21:41:01.595Z,0.25
2023-10-20T21:43:28.661Z,0.20
2023-10-20T21:45:59.537Z,0.22
2023-10-20T21:48:26.880Z,0.30
2023-10-20T21:51:01.431Z,0.20
2023-10-20T21:53:30.169Z,0.13
2023-10-20T21:56:06.006Z,0.20
2023-10-20T21:58:38.141Z,0.30
2023-10-20T22:01:10.143Z,0.15
2023-10-20T22:03:39.197Z,0.20
2023-10-20T22:06:09.525Z,0.10
2023-10-20T22:08:36.331Z,0.22
2023-10-20T22:11:02.873Z,0.10
2023-10-20T22:13:29.441Z,0.20
2023-10-20T22:15:56.826Z,0.30
2023-10-20T22:18:23.587Z,0.30
2023-10-20T22:20:50.266Z,0.40
2023-10-20T22:23:19.275Z,0.32
2023-10-20T22:25:45.898Z,0.60
2023-10-20T22:28:12.392Z,0.43
2023-10-20T22:30:38.923Z,0.35
2023-10-20T22:33:05.623Z,0.28
2023-10-20T22:35:36.535Z,0.10
2023-10-20T22:38:03.233Z,0.13
2023-10-20T22:40:29.817Z,0.20
2023-10-20T22:42:56.805Z,0.17
2023-10-20T22:45:23.294Z,0.40
2023-10-20T22:47:52.991Z,0.20
2023-10-20T22:50:20.405Z,0.17
2023-10-20T22:52:50.177Z,0.10
2023-10-20T22:55:16.736Z,0.20
2023-10-20T22:57:43.431Z,0.30
2023-10-20T23:00:12.811Z,0.10
2023-10-20T23:02:41.209Z,0.28
2023-10-20T23:05:08.990Z,0.20
2023-10-20T23:07:35.882Z,0.73
2023-10-20T23:10:04.553Z,0.10
2023-10-20T23:12:34.674Z,0.28
2023-10-20T23:15:01.867Z,0.30
2023-10-20T23:17:28.631Z,0.20
2023-10-20T23:19:55.806Z,0.20
2023-10-20T23:22:22.393Z,0.40
2023-10-20T23:24:48.948Z,0.30
2023-10-20T23:27:15.701Z,0.30
2023-10-20T23:29:43.157Z,0.20
2023-10-20T23:32:09.953Z,0.20
2023-10-20T23:34:36.736Z,0.15
2023-10-20T23:37:06.223Z,0.20
2023-10-20T23:39:34.416Z,0.30
2023-10-20T23:42:05.265Z,0.30
2023-10-20T23:44:32.381Z,0.30
2023-10-20T23:46:58.893Z,0.20
2023-10-20T23:49:25.597Z,0.30
2023-10-20T23:51:52.912Z,0.32
2023-10-20T23:54:19.620Z,0.20
2023-10-20T23:56:46.259Z,0.63
2023-10-20T23:59:12.772Z,0.08
